sensor_id;sensor_type;location;lat;lon;timestamp;pressure;altitude;pressure_sealevel;temperature;humidity
73870;BME280;64924;42.140;24.762;2023-04-25T00:01:14;98886.16;;;16.00;63.13
73870;BME280;64924;42.140;24.762;2023-04-25T00:03:40;98898.63;;;16.08;62.95
73870;BME280;64924;42.140;24.762;2023-04-25T00:06:06;98850.47;;;15.62;62.91
73870;BME280;64924;42.140;24.762;2023-04-25T00:08:32;98887.59;;;15.69;63.87
73870;BME280;64924;42.140;24.762;2023-04-25T00:10:58;98884.50;;;15.66;63.75
73870;BME280;64924;42.140;24.762;2023-04-25T00:13:24;98864.81;;;15.52;64.15
73870;BME280;64924;42.140;24.762;2023-04-25T00:15:51;98875.78;;;15.52;64.42
73870;BME280;64924;42.140;24.762;2023-04-25T00:18:16;98870.28;;;15.52;64.28
73870;BME280;64924;42.140;24.762;2023-04-25T00:20:43;98876.78;;;15.63;64.29
73870;BME280;64924;42.140;24.762;2023-04-25T00:23:13;98868.88;;;15.50;64.25
73870;BME280;64924;42.140;24.762;2023-04-25T00:25:43;98881.97;;;15.59;64.47
73870;BME280;64924;42.140;24.762;2023-04-25T00:28:10;98877.22;;;15.71;64.06
73870;BME280;64924;42.140;24.762;2023-04-25T00:30:35;98871.06;;;15.64;64.23
73870;BME280;64924;42.140;24.762;2023-04-25T00:33:01;98874.47;;;15.71;63.57
73870;BME280;64924;42.140;24.762;2023-04-25T00:35:26;98843.88;;;15.58;64.25
73870;BME280;64924;42.140;24.762;2023-04-25T00:37:52;98844.59;;;15.70;63.61
73870;BME280;64924;42.140;24.762;2023-04-25T00:40:17;98817.97;;;15.65;63.67
73870;BME280;64924;42.140;24.762;2023-04-25T00:42:43;98852.06;;;15.91;63.31
73870;BME280;64924;42.140;24.762;2023-04-25T00:45:13;98851.88;;;15.98;62.89
73870;BME280;64924;42.140;24.762;2023-04-25T00:47:40;98864.50;;;15.99;62.73
73870;BME280;64924;42.140;24.762;2023-04-25T00:50:06;98844.69;;;15.92;62.70
73870;BME280;64924;42.140;24.762;2023-04-25T00:52:32;98856.34;;;16.04;62.32
73870;BME280;64924;42.140;24.762;2023-04-25T00:54:58;98857.19;;;16.21;62.03
73870;BME280;64924;42.140;24.762;2023-04-25T00:57:23;98854.50;;;16.26;61.67
73870;BME280;64924;42.140;24.762;2023-04-25T00:59:50;98868.09;;;16.38;61.57
73870;BME280;64924;42.140;24.762;2023-04-25T01:02:17;98864.41;;;16.49;61.56
73870;BME280;64924;42.140;24.762;2023-04-25T01:04:42;98864.81;;;16.58;61.18
73870;BME280;64924;42.140;24.762;2023-04-25T01:07:08;98847.13;;;16.49;61.09
73870;BME280;64924;42.140;24.762;2023-04-25T01:09:35;98814.72;;;16.24;60.96
73870;BME280;64924;42.140;24.762;2023-04-25T01:12:01;98862.94;;;16.42;61.40
73870;BME280;64924;42.140;24.762;2023-04-25T01:14:28;98857.34;;;16.31;61.51
73870;BME280;64924;42.140;24.762;2023-04-25T01:16:55;98877.41;;;16.37;61.57
73870;BME280;64924;42.140;24.762;2023-04-25T01:19:21;98865.09;;;16.39;61.33
73870;BME280;64924;42.140;24.762;2023-04-25T01:21:46;98849.22;;;16.42;61.23
73870;BME280;64924;42.140;24.762;2023-04-25T01:24:12;98863.72;;;16.59;61.05
73870;BME280;64924;42.140;24.762;2023-04-25T01:26:39;98855.75;;;16.57;61.23
73870;BME280;64924;42.140;24.762;2023-04-25T01:29:09;98869.88;;;16.66;61.01
73870;BME280;64924;42.140;24.762;2023-04-25T01:31:36;98858.81;;;16.61;60.68
73870;BME280;64924;42.140;24.762;2023-04-25T01:34:02;98853.69;;;16.64;60.79
73870;BME280;64924;42.140;24.762;2023-04-25T01:36:27;98860.47;;;16.62;61.27
73870;BME280;64924;42.140;24.762;2023-04-25T01:38:53;98845.78;;;16.68;60.51
73870;BME280;64924;42.140;24.762;2023-04-25T01:41:19;98842.78;;;16.69;59.99
73870;BME280;64924;42.140;24.762;2023-04-25T01:43:45;98848.38;;;16.80;60.11
73870;BME280;64924;42.140;24.762;2023-04-25T01:46:11;98812.19;;;16.61;60.22
73870;BME280;64924;42.140;24.762;2023-04-25T01:48:37;98856.09;;;16.83;60.26
73870;BME280;64924;42.140;24.762;2023-04-25T01:51:02;98863.56;;;16.87;59.99
73870;BME280;64924;42.140;24.762;2023-04-25T01:53:28;98860.09;;;16.75;60.41
73870;BME280;64924;42.140;24.762;2023-04-25T01:55:54;98851.38;;;16.78;60.29
73870;BME280;64924;42.140;24.762;2023-04-25T01:58:20;98841.22;;;16.79;60.61
73870;BME280;64924;42.140;24.762;2023-04-25T02:00:46;98825.84;;;16.78;60.81
73870;BME280;64924;42.140;24.762;2023-04-25T02:03:11;98843.66;;;16.75;60.77
73870;BME280;64924;42.140;24.762;2023-04-25T02:05:38;98843.91;;;16.74;60.80
73870;BME280;64924;42.140;24.762;2023-04-25T02:08:08;98842.78;;;16.69;61.35
73870;BME280;64924;42.140;24.762;2023-04-25T02:10:34;98841.28;;;16.62;61.48
73870;BME280;64924;42.140;24.762;2023-04-25T02:13:00;98800.63;;;16.37;61.41
73870;BME280;64924;42.140;24.762;2023-04-25T02:15:26;98835.06;;;16.66;61.42
73870;BME280;64924;42.140;24.762;2023-04-25T02:17:51;98835.31;;;16.65;61.25
73870;BME280;64924;42.140;24.762;2023-04-25T02:20:20;98791.13;;;16.45;61.37
73870;BME280;64924;42.140;24.762;2023-04-25T02:22:46;98799.38;;;16.45;61.23
73870;BME280;64924;42.140;24.762;2023-04-25T02:25:12;98807.25;;;16.41;61.78
73870;BME280;64924;42.140;24.762;2023-04-25T02:27:38;98839.28;;;16.57;61.62
73870;BME280;64924;42.140;24.762;2023-04-25T02:30:04;98840.97;;;16.58;61.75
73870;BME280;64924;42.140;24.762;2023-04-25T02:32:32;98827.25;;;16.58;61.84
73870;BME280;64924;42.140;24.762;2023-04-25T02:34:59;98794.53;;;16.30;61.82
73870;BME280;64924;42.140;24.762;2023-04-25T02:37:29;98824.63;;;16.47;61.48
73870;BME280;64924;42.140;24.762;2023-04-25T02:39:55;98824.38;;;16.48;61.94
73870;BME280;64924;42.140;24.762;2023-04-25T02:42:20;98806.13;;;16.37;61.48
73870;BME280;64924;42.140;24.762;2023-04-25T02:44:46;98830.16;;;16.52;61.63
73870;BME280;64924;42.140;24.762;2023-04-25T02:47:11;98821.03;;;16.46;61.56
73870;BME280;64924;42.140;24.762;2023-04-25T02:49:37;98832.00;;;16.46;61.46
73870;BME280;64924;42.140;24.762;2023-04-25T02:52:02;98833.09;;;16.45;61.73
73870;BME280;64924;42.140;24.762;2023-04-25T02:54:27;98837.75;;;16.45;61.39
73870;BME280;64924;42.140;24.762;2023-04-25T02:56:53;98840.06;;;16.53;61.52
73870;BME280;64924;42.140;24.762;2023-04-25T02:59:18;98833.75;;;16.52;61.65
73870;BME280;64924;42.140;24.762;2023-04-25T03:01:44;98844.22;;;16.55;61.37
73870;BME280;64924;42.140;24.762;2023-04-25T03:04:10;98853.78;;;16.53;61.19
73870;BME280;64924;42.140;24.762;2023-04-25T03:06:35;98841.91;;;16.47;61.70
73870;BME280;64924;42.140;24.762;2023-04-25T03:09:01;98830.28;;;16.40;61.64
73870;BME280;64924;42.140;24.762;2023-04-25T03:11:26;98847.13;;;16.49;61.27
73870;BME280;64924;42.140;24.762;2023-04-25T03:13:52;98837.50;;;16.46;60.97
73870;BME280;64924;42.140;24.762;2023-04-25T03:16:17;98836.34;;;16.42;60.94
73870;BME280;64924;42.140;24.762;2023-04-25T03:18:43;98853.44;;;16.49;61.01
73870;BME280;64924;42.140;24.762;2023-04-25T03:21:08;98854.78;;;16.47;61.12
73870;BME280;64924;42.140;24.762;2023-04-25T03:23:34;98847.56;;;16.41;60.73
73870;BME280;64924;42.140;24.762;2023-04-25T03:25:59;98856.63;;;16.41;60.81
73870;BME280;64924;42.140;24.762;2023-04-25T03:28:25;98849.81;;;16.44;60.62
73870;BME280;64924;42.140;24.762;2023-04-25T03:30:51;98842.16;;;16.46;60.45
73870;BME280;64924;42.140;24.762;2023-04-25T03:33:16;98794.38;;;16.20;60.45
73870;BME280;64924;42.140;24.762;2023-04-25T03:35:42;98830.34;;;16.45;60.48
73870;BME280;64924;42.140;24.762;2023-04-25T03:38:08;98778.97;;;16.14;60.10
73870;BME280;64924;42.140;24.762;2023-04-25T03:40:33;98821.94;;;16.52;60.29
73870;BME280;64924;42.140;24.762;2023-04-25T03:42:59;98812.56;;;16.48;60.34
73870;BME280;64924;42.140;24.762;2023-04-25T03:45:24;98818.13;;;16.53;60.27
73870;BME280;64924;42.140;24.762;2023-04-25T03:47:50;98809.25;;;16.46;60.04
73870;BME280;64924;42.140;24.762;2023-04-25T03:50:15;98821.88;;;16.47;60.03
73870;BME280;64924;42.140;24.762;2023-04-25T03:52:40;98771.44;;;16.26;60.30
73870;BME280;64924;42.140;24.762;2023-04-25T03:55:06;98784.41;;;16.30;59.73
73870;BME280;64924;42.140;24.762;2023-04-25T03:57:32;98796.88;;;16.43;59.67
73870;BME280;64924;42.140;24.762;2023-04-25T03:59:57;98822.28;;;16.33;60.41
73870;BME280;64924;42.140;24.762;2023-04-25T04:02:23;98758.69;;;16.15;60.08
73870;BME280;64924;42.140;24.762;2023-04-25T04:04:48;98793.88;;;16.45;59.83
73870;BME280;64924;42.140;24.762;2023-04-25T04:07:14;98804.22;;;16.59;59.54
73870;BME280;64924;42.140;24.762;2023-04-25T04:09:39;98755.00;;;16.26;59.72
73870;BME280;64924;42.140;24.762;2023-04-25T04:12:05;98811.94;;;16.62;59.50
73870;BME280;64924;42.140;24.762;2023-04-25T04:14:30;98809.03;;;16.69;59.15
73870;BME280;64924;42.140;24.762;2023-04-25T04:16:56;98792.31;;;16.70;59.16
73870;BME280;64924;42.140;24.762;2023-04-25T04:19:21;98816.66;;;16.89;58.73
73870;BME280;64924;42.140;24.762;2023-04-25T04:21:47;98808.28;;;17.00;58.64
73870;BME280;64924;42.140;24.762;2023-04-25T04:24:12;98812.78;;;17.70;57.11
73870;BME280;64924;42.140;24.762;2023-04-25T04:26:38;98800.91;;;18.49;54.36
73870;BME280;64924;42.140;24.762;2023-04-25T04:29:04;98808.59;;;19.25;52.54
73870;BME280;64924;42.140;24.762;2023-04-25T04:31:30;98813.00;;;19.41;51.87
73870;BME280;64924;42.140;24.762;2023-04-25T04:33:55;98811.97;;;19.57;51.06
73870;BME280;64924;42.140;24.762;2023-04-25T04:36:21;98769.75;;;19.36;51.22
73870;BME280;64924;42.140;24.762;2023-04-25T04:38:48;98815.25;;;19.85;50.44
73870;BME280;64924;42.140;24.762;2023-04-25T04:41:14;98816.63;;;19.77;50.70
73870;BME280;64924;42.140;24.762;2023-04-25T04:43:39;98808.63;;;19.70;50.94
73870;BME280;64924;42.140;24.762;2023-04-25T04:46:05;98762.88;;;19.69;49.83
73870;BME280;64924;42.140;24.762;2023-04-25T04:48:31;98803.84;;;20.32;48.94
73870;BME280;64924;42.140;24.762;2023-04-25T04:51:00;98822.63;;;20.25;49.23
73870;BME280;64924;42.140;24.762;2023-04-25T04:53:27;98810.81;;;19.99;49.59
73870;BME280;64924;42.140;24.762;2023-04-25T04:55:52;98814.69;;;19.73;49.76
73870;BME280;64924;42.140;24.762;2023-04-25T04:58:18;98817.97;;;19.44;50.47
73870;BME280;64924;42.140;24.762;2023-04-25T05:00:44;98798.63;;;19.09;51.16
73870;BME280;64924;42.140;24.762;2023-04-25T05:03:10;98812.91;;;18.95;51.52
73870;BME280;64924;42.140;24.762;2023-04-25T05:05:36;98823.56;;;18.66;52.90
73870;BME280;64924;42.140;24.762;2023-04-25T05:08:05;98795.25;;;18.19;53.97
73870;BME280;64924;42.140;24.762;2023-04-25T05:10:31;98795.81;;;18.26;53.78
73870;BME280;64924;42.140;24.762;2023-04-25T05:12:56;98815.19;;;18.46;54.16
73870;BME280;64924;42.140;24.762;2023-04-25T05:15:22;98820.94;;;18.40;54.10
73870;BME280;64924;42.140;24.762;2023-04-25T05:17:47;98823.34;;;18.31;54.38
73870;BME280;64924;42.140;24.762;2023-04-25T05:20:13;98818.94;;;18.30;54.50
73870;BME280;64924;42.140;24.762;2023-04-25T05:22:39;98818.72;;;18.36;54.27
73870;BME280;64924;42.140;24.762;2023-04-25T05:25:07;98812.88;;;18.28;54.36
73870;BME280;64924;42.140;24.762;2023-04-25T05:27:33;98806.81;;;18.26;54.13
73870;BME280;64924;42.140;24.762;2023-04-25T05:29:58;98793.59;;;18.18;54.49
73870;BME280;64924;42.140;24.762;2023-04-25T05:32:24;98789.19;;;18.17;54.38
73870;BME280;64924;42.140;24.762;2023-04-25T05:34:50;98814.00;;;18.32;54.09
73870;BME280;64924;42.140;24.762;2023-04-25T05:37:16;98819.28;;;18.38;53.89
73870;BME280;64924;42.140;24.762;2023-04-25T05:39:42;98780.09;;;18.11;53.88
73870;BME280;64924;42.140;24.762;2023-04-25T05:42:07;98821.19;;;18.38;54.11
73870;BME280;64924;42.140;24.762;2023-04-25T05:44:33;98826.75;;;18.48;54.03
73870;BME280;64924;42.140;24.762;2023-04-25T05:46:58;98810.25;;;18.48;53.67
73870;BME280;64924;42.140;24.762;2023-04-25T05:49:24;98825.22;;;18.73;53.66
73870;BME280;64924;42.140;24.762;2023-04-25T05:51:49;98777.88;;;18.65;53.30
73870;BME280;64924;42.140;24.762;2023-04-25T05:54:15;98811.09;;;19.47;52.25
73870;BME280;64924;42.140;24.762;2023-04-25T05:56:40;98812.69;;;20.39;49.56
73870;BME280;64924;42.140;24.762;2023-04-25T05:59:06;98795.91;;;21.73;46.20
73870;BME280;64924;42.140;24.762;2023-04-25T06:01:31;98807.47;;;22.62;44.73
73870;BME280;64924;42.140;24.762;2023-04-25T06:03:57;98777.88;;;23.56;42.46
73870;BME280;64924;42.140;24.762;2023-04-25T06:06:22;98802.78;;;25.31;38.79
73870;BME280;64924;42.140;24.762;2023-04-25T06:08:48;98793.31;;;26.21;36.51
73870;BME280;64924;42.140;24.762;2023-04-25T06:11:13;98783.06;;;26.08;36.15
73870;BME280;64924;42.140;24.762;2023-04-25T06:13:39;98790.69;;;25.13;37.81
73870;BME280;64924;42.140;24.762;2023-04-25T06:16:04;98794.94;;;24.28;38.77
73870;BME280;64924;42.140;24.762;2023-04-25T06:18:30;98801.41;;;23.40;40.43
73870;BME280;64924;42.140;24.762;2023-04-25T06:20:56;98790.41;;;22.74;42.06
73870;BME280;64924;42.140;24.762;2023-04-25T06:23:22;98766.19;;;21.89;43.55
73870;BME280;64924;42.140;24.762;2023-04-25T06:25:47;98764.59;;;21.49;44.25
73870;BME280;64924;42.140;24.762;2023-04-25T06:28:12;98795.78;;;21.54;44.86
73870;BME280;64924;42.140;24.762;2023-04-25T06:30:38;98790.72;;;21.27;45.47
73870;BME280;64924;42.140;24.762;2023-04-25T06:33:03;98802.94;;;21.21;45.87
73870;BME280;64924;42.140;24.762;2023-04-25T06:35:29;98794.56;;;21.31;45.86
73870;BME280;64924;42.140;24.762;2023-04-25T06:37:54;98771.06;;;22.26;43.94
73870;BME280;64924;42.140;24.762;2023-04-25T06:40:20;98780.03;;;24.38;40.25
73870;BME280;64924;42.140;24.762;2023-04-25T06:42:45;98765.88;;;25.17;38.38
73870;BME280;64924;42.140;24.762;2023-04-25T06:45:11;98774.41;;;26.32;36.51
73870;BME280;64924;42.140;24.762;2023-04-25T06:47:36;98770.72;;;27.45;34.19
73870;BME280;64924;42.140;24.762;2023-04-25T06:50:02;98773.31;;;27.07;34.28
73870;BME280;64924;42.140;24.762;2023-04-25T06:52:28;98768.66;;;26.37;35.12
73870;BME280;64924;42.140;24.762;2023-04-25T06:54:53;98744.38;;;25.09;36.75
73870;BME280;64924;42.140;24.762;2023-04-25T06:57:19;98772.28;;;24.08;39.15
73870;BME280;64924;42.140;24.762;2023-04-25T06:59:44;98785.47;;;23.83;40.04
73870;BME280;64924;42.140;24.762;2023-04-25T07:02:10;98788.00;;;23.66;40.42
73870;BME280;64924;42.140;24.762;2023-04-25T07:04:35;98776.41;;;23.78;40.26
73870;BME280;64924;42.140;24.762;2023-04-25T07:07:01;98782.88;;;23.73;40.10
73870;BME280;64924;42.140;24.762;2023-04-25T07:09:28;98782.63;;;23.37;40.60
73870;BME280;64924;42.140;24.762;2023-04-25T07:11:54;98780.22;;;23.12;41.42
73870;BME280;64924;42.140;24.762;2023-04-25T07:14:19;98781.63;;;22.90;41.94
73870;BME280;64924;42.140;24.762;2023-04-25T07:16:45;98782.00;;;23.02;41.70
73870;BME280;64924;42.140;24.762;2023-04-25T07:19:10;98789.50;;;22.83;42.00
73870;BME280;64924;42.140;24.762;2023-04-25T07:21:36;98790.84;;;22.62;42.58
73870;BME280;64924;42.140;24.762;2023-04-25T07:24:02;98781.66;;;22.43;43.74
73870;BME280;64924;42.140;24.762;2023-04-25T07:26:27;98781.31;;;22.25;43.77
73870;BME280;64924;42.140;24.762;2023-04-25T07:28:53;98761.91;;;22.01;43.76
73870;BME280;64924;42.140;24.762;2023-04-25T07:31:19;98765.72;;;23.01;41.81
73870;BME280;64924;42.140;24.762;2023-04-25T07:33:45;98752.13;;;24.16;39.13
73870;BME280;64924;42.140;24.762;2023-04-25T07:36:11;98751.84;;;24.72;37.99
73870;BME280;64924;42.140;24.762;2023-04-25T07:38:37;98758.38;;;25.04;37.23
73870;BME280;64924;42.140;24.762;2023-04-25T07:41:03;98762.44;;;24.84;37.42
73870;BME280;64924;42.140;24.762;2023-04-25T07:43:29;98746.38;;;24.81;37.54
73870;BME280;64924;42.140;24.762;2023-04-25T07:45:54;98762.66;;;25.46;36.48
73870;BME280;64924;42.140;24.762;2023-04-25T07:48:19;98743.53;;;26.28;35.03
73870;BME280;64924;42.140;24.762;2023-04-25T07:50:45;98750.34;;;26.45;34.89
73870;BME280;64924;42.140;24.762;2023-04-25T07:53:11;98671.56;;;25.51;34.91
73870;BME280;64924;42.140;24.762;2023-04-25T07:55:36;98741.00;;;26.10;34.73
73870;BME280;64924;42.140;24.762;2023-04-25T07:58:06;98748.47;;;26.80;34.29
73870;BME280;64924;42.140;24.762;2023-04-25T08:00:31;98740.75;;;26.77;33.81
73870;BME280;64924;42.140;24.762;2023-04-25T08:02:57;98710.03;;;26.11;34.28
73870;BME280;64924;42.140;24.762;2023-04-25T08:05:22;98740.75;;;26.28;34.52
73870;BME280;64924;42.140;24.762;2023-04-25T08:07:47;98751.66;;;27.04;33.26
73870;BME280;64924;42.140;24.762;2023-04-25T08:10:13;98733.63;;;27.27;32.84
73870;BME280;64924;42.140;24.762;2023-04-25T08:12:38;98743.47;;;27.68;32.20
73870;BME280;64924;42.140;24.762;2023-04-25T08:15:05;98763.75;;;28.03;31.56
73870;BME280;64924;42.140;24.762;2023-04-25T08:17:31;98720.13;;;28.28;30.75
73870;BME280;64924;42.140;24.762;2023-04-25T08:19:57;98742.09;;;28.76;30.04
73870;BME280;64924;42.140;24.762;2023-04-25T08:22:22;98725.44;;;29.09;29.30
73870;BME280;64924;42.140;24.762;2023-04-25T08:24:48;98730.25;;;29.63;28.62
73870;BME280;64924;42.140;24.762;2023-04-25T08:27:13;98741.25;;;30.01;28.29
73870;BME280;64924;42.140;24.762;2023-04-25T08:29:39;98743.13;;;30.09;27.58
73870;BME280;64924;42.140;24.762;2023-04-25T08:32:04;98745.22;;;29.67;28.25
73870;BME280;64924;42.140;24.762;2023-04-25T08:34:30;98742.75;;;28.82;28.39
73870;BME280;64924;42.140;24.762;2023-04-25T08:36:55;98742.78;;;27.80;29.99
73870;BME280;64924;42.140;24.762;2023-04-25T08:39:21;98743.78;;;27.32;30.66
73870;BME280;64924;42.140;24.762;2023-04-25T08:41:47;98745.19;;;26.86;31.73
73870;BME280;64924;42.140;24.762;2023-04-25T08:44:13;98752.03;;;26.54;31.64
73870;BME280;64924;42.140;24.762;2023-04-25T08:46:40;98760.53;;;26.18;32.13
73870;BME280;64924;42.140;24.762;2023-04-25T08:49:06;98756.81;;;25.70;32.77
73870;BME280;64924;42.140;24.762;2023-04-25T08:51:32;98756.41;;;25.18;33.82
73870;BME280;64924;42.140;24.762;2023-04-25T08:54:11;98759.94;;;24.96;34.39
73870;BME280;64924;42.140;24.762;2023-04-25T08:56:41;98728.72;;;24.49;35.14
73870;BME280;64924;42.140;24.762;2023-04-25T08:59:09;98768.22;;;24.46;36.25
73870;BME280;64924;42.140;24.762;2023-04-25T09:01:35;98772.78;;;24.23;37.30
73870;BME280;64924;42.140;24.762;2023-04-25T09:04:01;98738.50;;;23.87;37.84
73870;BME280;64924;42.140;24.762;2023-04-25T09:06:28;98760.09;;;23.76;38.71
73870;BME280;64924;42.140;24.762;2023-04-25T09:09:04;98765.44;;;23.54;39.01
73870;BME280;64924;42.140;24.762;2023-04-25T09:11:31;98765.16;;;23.37;39.09
73870;BME280;64924;42.140;24.762;2023-04-25T09:14:17;98753.84;;;23.33;39.16
73870;BME280;64924;42.140;24.762;2023-04-25T09:19:25;98762.41;;;22.99;40.91
73870;BME280;64924;42.140;24.762;2023-04-25T09:21:53;98761.13;;;23.10;41.15
73870;BME280;64924;42.140;24.762;2023-04-25T09:24:36;98752.31;;;23.41;40.53
73870;BME280;64924;42.140;24.762;2023-04-25T09:27:06;98743.59;;;23.33;40.93
73870;BME280;64924;42.140;24.762;2023-04-25T09:29:36;98746.06;;;23.35;40.14
73870;BME280;64924;42.140;24.762;2023-04-25T09:32:15;98751.38;;;23.31;39.97
73870;BME280;64924;42.140;24.762;2023-04-25T09:34:43;98717.81;;;23.14;40.11
73870;BME280;64924;42.140;24.762;2023-04-25T09:37:10;98750.59;;;23.63;39.86
73870;BME280;64924;42.140;24.762;2023-04-25T09:39:38;98740.28;;;23.96;38.63
73870;BME280;64924;42.140;24.762;2023-04-25T09:42:04;98704.63;;;24.04;37.54
73870;BME280;64924;42.140;24.762;2023-04-25T09:44:30;98707.00;;;23.96;37.30
73870;BME280;64924;42.140;24.762;2023-04-25T09:46:56;98739.47;;;24.23;37.05
73870;BME280;64924;42.140;24.762;2023-04-25T09:49:22;98724.56;;;24.19;37.10
73870;BME280;64924;42.140;24.762;2023-04-25T09:51:58;98725.94;;;24.49;36.68
73870;BME280;64924;42.140;24.762;2023-04-25T09:54:26;98720.28;;;24.27;36.37
73870;BME280;64924;42.140;24.762;2023-04-25T09:56:53;98717.91;;;24.07;36.75
73870;BME280;64924;42.140;24.762;2023-04-25T09:59:20;98718.81;;;24.16;36.88
73870;BME280;64924;42.140;24.762;2023-04-25T10:01:48;98711.84;;;24.32;36.44
73870;BME280;64924;42.140;24.762;2023-04-25T10:04:19;98701.13;;;24.53;36.41
73870;BME280;64924;42.140;24.762;2023-04-25T10:06:48;98664.81;;;24.63;35.83
73870;BME280;64924;42.140;24.762;2023-04-25T10:09:14;98683.03;;;24.91;35.79
73870;BME280;64924;42.140;24.762;2023-04-25T10:11:41;98691.06;;;25.07;35.61
73870;BME280;64924;42.140;24.762;2023-04-25T10:14:06;98688.03;;;25.17;34.47
73870;BME280;64924;42.140;24.762;2023-04-25T10:16:33;98676.59;;;25.18;34.30
73870;BME280;64924;42.140;24.762;2023-04-25T10:18:58;98668.09;;;25.01;34.60
73870;BME280;64924;42.140;24.762;2023-04-25T10:21:24;98668.25;;;24.82;35.00
73870;BME280;64924;42.140;24.762;2023-04-25T10:23:53;98665.59;;;24.77;34.98
73870;BME280;64924;42.140;24.762;2023-04-25T10:26:19;98648.66;;;24.51;35.07
73870;BME280;64924;42.140;24.762;2023-04-25T10:28:59;98645.56;;;24.66;34.69
73870;BME280;64924;42.140;24.762;2023-04-25T10:31:26;98640.75;;;24.58;35.13
73870;BME280;64924;42.140;24.762;2023-04-25T10:33:51;98633.97;;;24.51;34.61
73870;BME280;64924;42.140;24.762;2023-04-25T10:36:19;98592.59;;;24.27;34.94
73870;BME280;64924;42.140;24.762;2023-04-25T10:38:48;98611.91;;;24.68;34.73
73870;BME280;64924;42.140;24.762;2023-04-25T10:41:17;98621.81;;;24.96;34.11
73870;BME280;64924;42.140;24.762;2023-04-25T10:43:45;98577.06;;;24.84;33.48
73870;BME280;64924;42.140;24.762;2023-04-25T10:46:24;98603.69;;;25.21;33.35
73870;BME280;64924;42.140;24.762;2023-04-25T10:48:57;98606.34;;;24.90;33.41
73870;BME280;64924;42.140;24.762;2023-04-25T10:51:27;98605.97;;;24.61;33.58
73870;BME280;64924;42.140;24.762;2023-04-25T10:54:03;98606.16;;;24.28;34.12
73870;BME280;64924;42.140;24.762;2023-04-25T10:59:13;98591.44;;;24.42;34.20
73870;BME280;64924;42.140;24.762;2023-04-25T11:01:44;98579.13;;;24.07;34.57
73870;BME280;64924;42.140;24.762;2023-04-25T11:04:31;98551.63;;;23.69;36.25
73870;BME280;64924;42.140;24.762;2023-04-25T11:07:07;98590.97;;;23.57;36.87
73870;BME280;64924;42.140;24.762;2023-04-25T11:09:36;98548.25;;;22.98;37.77
73870;BME280;64924;42.140;24.762;2023-04-25T11:12:03;98576.19;;;23.16;38.15
73870;BME280;64924;42.140;24.762;2023-04-25T11:14:30;98583.56;;;23.07;37.86
73870;BME280;64924;42.140;24.762;2023-04-25T11:16:57;98579.97;;;23.06;37.80
73870;BME280;64924;42.140;24.762;2023-04-25T11:19:23;98478.38;;;22.69;36.52
73870;BME280;64924;42.140;24.762;2023-04-25T11:21:49;98574.97;;;23.22;36.66
73870;BME280;64924;42.140;24.762;2023-04-25T11:24:18;98569.47;;;23.36;36.82
73870;BME280;64924;42.140;24.762;2023-04-25T11:26:46;98578.69;;;23.31;38.15
73870;BME280;64924;42.140;24.762;2023-04-25T11:29:13;98571.72;;;23.33;38.36
73870;BME280;64924;42.140;24.762;2023-04-25T11:31:38;98571.09;;;23.50;38.15
73870;BME280;64924;42.140;24.762;2023-04-25T11:34:03;98559.81;;;23.47;38.68
73870;BME280;64924;42.140;24.762;2023-04-25T11:36:29;98560.00;;;23.23;39.42
73870;BME280;64924;42.140;24.762;2023-04-25T11:38:56;98559.94;;;22.95;39.69
73870;BME280;64924;42.140;24.762;2023-04-25T11:41:21;98558.38;;;22.71;39.86
73870;BME280;64924;42.140;24.762;2023-04-25T11:43:47;98543.78;;;22.84;39.40
73870;BME280;64924;42.140;24.762;2023-04-25T11:46:14;98544.88;;;23.15;39.14
73870;BME280;64924;42.140;24.762;2023-04-25T11:48:42;98540.72;;;23.31;39.26
73870;BME280;64924;42.140;24.762;2023-04-25T11:51:08;98528.03;;;23.12;39.12
73870;BME280;64924;42.140;24.762;2023-04-25T11:53:34;98530.19;;;23.01;38.96
73870;BME280;64924;42.140;24.762;2023-04-25T11:56:01;98527.91;;;22.89;39.39
73870;BME280;64924;42.140;24.762;2023-04-25T11:58:26;98533.53;;;22.65;39.77
73870;BME280;64924;42.140;24.762;2023-04-25T12:00:52;98514.38;;;22.69;40.23
73870;BME280;64924;42.140;24.762;2023-04-25T12:03:19;98520.31;;;22.62;40.19
73870;BME280;64924;42.140;24.762;2023-04-25T12:05:46;98472.66;;;22.14;40.51
73870;BME280;64924;42.140;24.762;2023-04-25T12:08:15;98505.81;;;22.52;39.98
73870;BME280;64924;42.140;24.762;2023-04-25T12:10:43;98503.34;;;22.50;40.05
73870;BME280;64924;42.140;24.762;2023-04-25T12:13:24;98504.28;;;22.78;39.66
73870;BME280;64924;42.140;24.762;2023-04-25T12:15:50;98495.13;;;22.45;40.27
73870;BME280;64924;42.140;24.762;2023-04-25T12:18:19;98506.22;;;22.26;40.55
73870;BME280;64924;42.140;24.762;2023-04-25T12:20:46;98477.22;;;22.24;40.36
73870;BME280;64924;42.140;24.762;2023-04-25T12:23:11;98463.72;;;22.36;39.44
73870;BME280;64924;42.140;24.762;2023-04-25T12:25:39;98496.78;;;22.46;39.29
73870;BME280;64924;42.140;24.762;2023-04-25T12:28:17;98487.56;;;22.51;39.21
73870;BME280;64924;42.140;24.762;2023-04-25T12:33:18;98502.47;;;22.87;38.59
73870;BME280;64924;42.140;24.762;2023-04-25T12:35:43;98478.97;;;22.33;39.30
73870;BME280;64924;42.140;24.762;2023-04-25T12:38:09;98485.91;;;22.50;39.40
73870;BME280;64924;42.140;24.762;2023-04-25T12:40:34;98464.81;;;22.54;38.87
73870;BME280;64924;42.140;24.762;2023-04-25T12:43:00;98470.47;;;22.95;38.71
73870;BME280;64924;42.140;24.762;2023-04-25T12:45:25;98453.44;;;23.15;37.58
73870;BME280;64924;42.140;24.762;2023-04-25T12:47:51;98437.03;;;23.32;37.38
73870;BME280;64924;42.140;24.762;2023-04-25T12:50:16;98462.13;;;23.77;36.76
73870;BME280;64924;42.140;24.762;2023-04-25T12:52:41;98477.31;;;23.93;36.37
73870;BME280;64924;42.140;24.762;2023-04-25T12:55:07;98478.09;;;23.72;36.71